Time;durP1;ratioP1;P1;durP2;ratioP2;P2;SDS_P1;SDS_P2;PMS_P1;PMS_P2;Temp;Humidity;BMP_temperature;BMP_pressure;BME280_temperature;BME280_humidity;BME280_pressure;Samples;Min_cycle;Max_cycle;Signal;HPM_P1;HPM_P2
2021/06/11 00:01:46;;;;;;;6.53;5.33;;;;;;;14.52;100.00;96226.69;4356673;33;20272;-76
2021/06/11 00:04:12;;;;;;;6.68;5.70;;;;;;;14.48;100.00;96227.00;4359056;33;20275;-76
2021/06/11 00:06:39;;;;;;;6.68;6.00;;;;;;;14.57;100.00;96231.56;4359713;33;20603;-76
2021/06/11 00:09:06;;;;;;;7.93;5.78;;;;;;;14.63;100.00;96225.09;4358218;33;20287;-75
2021/06/11 00:11:32;;;;;;;15.32;5.78;;;;;;;14.57;100.00;96226.34;4357536;32;20367;-74
2021/06/11 00:13:58;;;;;;;6.07;4.82;;;;;;;14.55;100.00;96227.44;4357910;33;20233;-76
2021/06/11 00:16:23;;;;;;;18.12;5.45;;;;;;;14.64;100.00;96222.38;4356291;33;20218;-75
2021/06/11 00:18:48;;;;;;;7.20;5.47;;;;;;;14.49;100.00;96229.50;4358041;33;20275;-75
2021/06/11 00:21:14;;;;;;;6.40;5.60;;;;;;;14.42;100.00;96223.03;4362561;32;20211;-75
2021/06/11 00:23:41;;;;;;;9.93;5.70;;;;;;;14.51;100.00;96224.22;4366589;32;20220;-75
2021/06/11 00:26:07;;;;;;;13.50;5.50;;;;;;;14.45;100.00;96225.44;4357174;33;20620;-75
2021/06/11 00:28:32;;;;;;;7.05;5.50;;;;;;;14.25;100.00;96223.41;4357717;33;20335;-75
2021/06/11 00:30:58;;;;;;;10.27;6.00;;;;;;;14.19;100.00;96229.03;4357412;33;20225;-73
2021/06/11 00:33:23;;;;;;;14.67;5.27;;;;;;;14.13;100.00;96219.91;4357658;33;20676;-75
2021/06/11 00:35:48;;;;;;;13.23;5.45;;;;;;;14.03;100.00;96222.31;4357114;33;20300;-75
2021/06/11 00:38:14;;;;;;;11.87;5.40;;;;;;;14.09;100.00;96220.19;4357501;33;20559;-73
2021/06/11 00:40:42;;;;;;;7.03;5.47;;;;;;;14.22;100.00;96221.84;4357379;33;20221;-75
2021/06/11 00:43:13;;;;;;;7.28;5.40;;;;;;;14.29;100.00;96217.88;4357404;32;20228;-75
2021/06/11 00:45:38;;;;;;;7.55;5.60;;;;;;;14.34;100.00;96224.53;4357018;32;20254;-73
2021/06/11 00:48:04;;;;;;;6.32;5.72;;;;;;;14.39;100.00;96228.50;4357518;32;20233;-75
2021/06/11 00:50:30;;;;;;;6.12;5.53;;;;;;;14.36;100.00;96233.09;4357416;33;20651;-75
2021/06/11 00:52:56;;;;;;;6.67;5.80;;;;;;;14.45;100.00;96225.44;4357958;32;20331;-75
2021/06/11 00:55:22;;;;;;;6.60;5.43;;;;;;;14.41;100.00;96221.37;4360272;32;20641;-75
2021/06/11 00:57:49;;;;;;;5.73;5.20;;;;;;;14.46;100.00;96216.69;4359075;32;20287;-74
2021/06/11 01:00:15;;;;;;;8.48;5.20;;;;;;;14.41;100.00;96228.37;4358956;33;20229;-75
2021/06/11 01:02:41;;;;;;;6.37;5.78;;;;;;;14.36;100.00;96223.50;4358517;33;20256;-74
2021/06/11 01:05:08;;;;;;;6.93;5.73;;;;;;;14.39;100.00;96217.25;4359926;33;20316;-74
2021/06/11 01:07:38;;;;;;;13.52;6.60;;;;;;;14.21;100.00;96219.38;4359812;32;20225;-75
2021/06/11 01:10:05;;;;;;;8.45;5.78;;;;;;;14.02;100.00;96219.81;4360298;32;20255;-74
2021/06/11 01:12:32;;;;;;;8.73;6.47;;;;;;;14.02;100.00;96225.03;4363382;32;20217;-75
2021/06/11 01:14:59;;;;;;;7.30;5.75;;;;;;;14.14;100.00;96218.94;4363107;33;20295;-74
2021/06/11 01:17:25;;;;;;;6.28;5.75;;;;;;;14.20;100.00;96218.53;4363729;32;20244;-75
2021/06/11 01:19:51;;;;;;;9.75;6.12;;;;;;;14.21;100.00;96217.59;4361404;32;20217;-74
2021/06/11 01:22:21;;;;;;;8.30;6.05;;;;;;;14.06;100.00;96217.84;4358845;33;20283;-74
2021/06/11 01:25:04;;;;;;;6.62;5.75;;;;;;;14.02;100.00;96217.22;4358845;33;20225;-74
2021/06/11 01:27:33;;;;;;;8.02;4.20;;;;;;;14.13;100.00;96214.69;4359273;32;20233;-74
2021/06/11 01:30:05;;;;;;;5.40;4.62;;;;;;;14.21;100.00;96217.59;4359749;32;20549;-75
2021/06/11 01:32:34;;;;;;;7.00;5.12;;;;;;;14.16;100.00;96218.84;4359582;32;20244;-75
2021/06/11 01:35:04;;;;;;;6.05;4.93;;;;;;;14.00;100.00;96219.91;4359587;32;20221;-74
2021/06/11 01:37:33;;;;;;;6.43;4.57;;;;;;;13.99;100.00;96210.44;4359295;32;20308;-75
2021/06/11 01:40:04;;;;;;;6.80;4.30;;;;;;;14.11;100.00;96207.91;4359664;32;20229;-75
2021/06/11 01:42:34;;;;;;;5.57;5.07;;;;;;;14.10;100.00;96206.25;4359530;32;20232;-74
2021/06/11 01:45:06;;;;;;;6.05;4.70;;;;;;;14.01;100.00;96212.91;4359475;32;20225;-74
2021/06/11 01:47:32;;;;;;;7.78;4.95;;;;;;;13.99;100.00;96207.00;4359203;32;20597;-75
2021/06/11 01:49:57;;;;;;;5.70;5.05;;;;;;;13.99;100.00;96212.22;4359311;33;20275;-75
2021/06/11 01:52:24;;;;;;;5.83;5.30;;;;;;;13.90;100.00;96210.22;4359625;32;20218;-75
2021/06/11 01:54:50;;;;;;;5.93;5.30;;;;;;;13.87;100.00;96208.69;4359511;32;20221;-74
2021/06/11 01:57:16;;;;;;;5.67;5.07;;;;;;;13.87;100.00;96216.50;4359334;32;20267;-75
2021/06/11 01:59:44;;;;;;;5.87;5.27;;;;;;;13.90;100.00;96207.63;4359460;33;20217;-75
2021/06/11 02:02:10;;;;;;;6.35;5.37;;;;;;;13.93;100.00;96217.84;4359518;32;20300;-75
2021/06/11 02:04:36;;;;;;;21.15;5.78;;;;;;;13.90;100.00;96220.63;4359009;32;20252;-76
2021/06/11 02:07:07;;;;;;;15.57;5.72;;;;;;;13.73;100.00;96222.63;4358387;32;20238;-75
2021/06/11 02:09:33;;;;;;;6.12;5.40;;;;;;;13.60;100.00;96215.75;4358065;33;20288;-75
2021/06/11 02:12:00;;;;;;;6.80;5.20;;;;;;;13.75;100.00;96207.72;4359519;32;20251;-75
2021/06/11 02:14:26;;;;;;;13.43;5.55;;;;;;;13.80;100.00;96210.88;4358882;33;20566;-73
2021/06/11 02:16:54;;;;;;;6.00;5.35;;;;;;;13.65;100.00;96211.09;4359250;32;20251;-74
2021/06/11 02:19:21;;;;;;;7.15;5.87;;;;;;;13.63;100.00;96205.97;4359711;32;20229;-73
2021/06/11 02:21:47;;;;;;;5.57;5.00;;;;;;;13.68;100.00;96210.88;4359457;32;20296;-73
2021/06/11 02:24:13;;;;;;;8.02;5.43;;;;;;;13.74;100.00;96208.69;4359213;32;20252;-73
2021/06/11 02:26:40;;;;;;;14.57;5.77;;;;;;;13.75;100.00;96210.34;4370140;32;20301;-72
2021/06/11 02:29:05;;;;;;;6.30;5.70;;;;;;;13.70;100.00;96211.59;4360324;32;20558;-73
2021/06/11 02:31:32;;;;;;;6.32;5.18;;;;;;;13.70;100.00;96211.59;4374403;32;20223;-73
2021/06/11 02:33:59;;;;;;;5.57;5.10;;;;;;;13.70;100.00;96214.22;4360473;32;20223;-73
2021/06/11 02:36:25;;;;;;;6.63;5.50;;;;;;;13.75;100.00;96204.31;4373968;32;20286;-73
2021/06/11 02:38:50;;;;;;;6.27;5.47;;;;;;;13.73;100.00;96209.62;4374115;32;20638;-73
2021/06/11 02:41:19;;;;;;;6.20;5.57;;;;;;;13.68;100.00;96211.72;4374053;32;20614;-73
2021/06/11 02:43:48;;;;;;;5.97;5.37;;;;;;;13.66;100.00;96210.97;4373972;32;20296;-73
2021/06/11 02:46:18;;;;;;;9.25;5.62;;;;;;;13.71;100.00;96206.28;4359877;32;20302;-73
2021/06/11 02:48:48;;;;;;;8.30;4.80;;;;;;;13.76;100.00;96206.00;4374308;32;20315;-73
2021/06/11 02:51:22;;;;;;;5.15;4.43;;;;;;;13.73;100.00;96204.41;4374530;32;20220;-73
2021/06/11 02:53:48;;;;;;;4.70;4.15;;;;;;;13.78;100.00;96201.50;4374459;32;20269;-74
2021/06/11 02:56:18;;;;;;;4.85;4.45;;;;;;;13.75;100.00;96206.91;4373279;32;20268;-74
2021/06/11 02:58:50;;;;;;;5.27;4.40;;;;;;;13.64;100.00;96201.59;4361909;32;20277;-74
2021/06/11 03:01:16;;;;;;;10.43;5.55;;;;;;;13.50;100.00;96195.56;4359453;33;20302;-73
2021/06/11 03:03:42;;;;;;;6.72;4.87;;;;;;;13.42;100.00;96199.63;4359518;32;20221;-73
2021/06/11 03:06:10;;;;;;;9.50;4.60;;;;;;;13.35;100.00;96207.03;4358628;32;20537;-73
2021/06/11 03:08:41;;;;;;;5.00;4.53;;;;;;;13.46;100.00;96208.88;4358873;32;20272;-74
2021/06/11 03:11:11;;;;;;;5.90;4.37;;;;;;;13.34;100.00;96209.72;4359085;32;20221;-73
2021/06/11 03:13:37;;;;;;;5.05;4.45;;;;;;;13.24;100.00;96206.91;4358953;32;20307;-73
2021/06/11 03:16:03;;;;;;;4.97;3.95;;;;;;;13.24;100.00;96202.53;4357790;32;20296;-73
2021/06/11 03:18:32;;;;;;;6.07;4.70;;;;;;;13.17;100.00;96205.59;4358438;33;20264;-73
2021/06/11 03:21:01;;;;;;;5.00;4.53;;;;;;;13.08;100.00;96201.81;4358729;32;20221;-73
2021/06/11 03:23:29;;;;;;;6.47;5.37;;;;;;;13.02;100.00;96205.69;4358697;32;20596;-74
2021/06/11 03:26:00;;;;;;;6.03;5.37;;;;;;;13.15;100.00;96208.28;4358282;32;20232;-74
2021/06/11 03:28:31;;;;;;;6.75;5.30;;;;;;;13.19;100.00;96212.34;4358871;32;20240;-73
2021/06/11 03:31:01;;;;;;;5.50;4.87;;;;;;;13.14;100.00;96218.81;4358841;33;20259;-74
2021/06/11 03:33:31;;;;;;;8.80;5.00;;;;;;;13.18;100.00;96204.66;4370506;32;20292;-73
2021/06/11 03:36:00;;;;;;;8.18;4.90;;;;;;;13.10;100.00;96210.38;4359419;32;20256;-73
2021/06/11 03:38:29;;;;;;;5.25;4.75;;;;;;;13.09;100.00;96213.91;4358236;32;20267;-73
2021/06/11 03:40:57;;;;;;;7.55;4.72;;;;;;;13.04;100.00;96208.16;4358705;32;20243;-73
2021/06/11 03:43:26;;;;;;;14.07;5.07;;;;;;;13.04;100.00;96209.00;4358447;33;20236;-73
2021/06/11 03:45:53;;;;;;;11.45;5.25;;;;;;;13.03;100.00;96204.75;4357863;33;20244;-73
2021/06/11 03:48:19;;;;;;;11.05;4.93;;;;;;;12.96;100.00;96210.44;4356942;33;20224;-73
2021/06/11 03:50:49;;;;;;;10.00;4.65;;;;;;;12.89;100.00;96207.41;4358137;33;20240;-73
2021/06/11 03:53:18;;;;;;;14.90;5.45;;;;;;;12.88;100.00;96212.72;4358314;32;20251;-73
2021/06/11 03:55:47;;;;;;;5.93;4.50;;;;;;;12.89;100.00;96206.56;4358143;32;20586;-73
2021/06/11 03:58:18;;;;;;;8.15;4.55;;;;;;;12.74;100.00;96209.22;4357920;33;20270;-73
2021/06/11 04:00:46;;;;;;;9.77;4.37;;;;;;;12.77;100.00;96216.00;4358751;32;20421;-73
2021/06/11 04:03:12;;;;;;;11.57;4.32;;;;;;;12.66;100.00;96205.47;4358370;32;20228;-73
2021/06/11 04:05:38;;;;;;;9.10;4.43;;;;;;;12.55;100.00;96206.13;4358507;32;20697;-73
2021/06/11 04:08:07;;;;;;;7.90;4.27;;;;;;;12.55;100.00;96211.34;4357168;33;20245;-73
2021/06/11 04:10:35;;;;;;;6.93;4.50;;;;;;;12.53;100.00;96215.78;4358111;33;20271;-73
2021/06/11 04:13:07;;;;;;;5.72;4.18;;;;;;;12.53;100.00;96206.25;4360174;32;20234;-73
2021/06/11 04:15:36;;;;;;;8.60;4.32;;;;;;;12.47;100.00;96211.81;4358461;33;20680;-73
2021/06/11 04:18:03;;;;;;;7.57;5.05;;;;;;;12.46;100.00;96209.31;4366407;32;20586;-72
2021/06/11 04:20:30;;;;;;;6.93;4.43;;;;;;;12.45;100.00;96207.66;4373267;32;20527;-73
2021/06/11 04:22:59;;;;;;;5.75;4.93;;;;;;;12.49;100.00;96211.72;4372957;32;20528;-72
2021/06/11 04:25:28;;;;;;;5.85;5.32;;;;;;;12.43;100.00;96210.34;4358058;32;20231;-73
2021/06/11 04:27:54;;;;;;;12.80;5.25;;;;;;;12.48;100.00;96213.47;4373514;32;20219;-73
2021/06/11 04:30:20;;;;;;;6.65;5.30;;;;;;;12.53;100.00;96214.03;4375442;32;20257;-73
2021/06/11 04:32:48;;;;;;;6.63;6.10;;;;;;;12.54;100.00;96210.50;4375755;32;20651;-74
2021/06/11 04:35:14;;;;;;;7.15;6.45;;;;;;;12.62;100.00;96219.59;4375157;32;20219;-73
2021/06/11 04:37:39;;;;;;;6.55;5.95;;;;;;;12.72;100.00;96221.50;4375243;32;20223;-74
2021/06/11 04:40:07;;;;;;;6.82;6.22;;;;;;;12.89;100.00;96216.97;4361599;32;20261;-74
2021/06/11 04:42:33;;;;;;;7.75;6.05;;;;;;;13.01;100.00;96224.78;4374806;32;21493;-73
2021/06/11 04:44:59;;;;;;;6.22;5.62;;;;;;;13.06;100.00;96225.34;4375391;32;20575;-74
2021/06/11 04:47:25;;;;;;;6.35;5.75;;;;;;;13.16;100.00;96222.13;4373015;32;20246;-74
2021/06/11 04:49:51;;;;;;;6.93;6.22;;;;;;;13.27;100.00;96227.47;4362511;32;20688;-74
2021/06/11 04:52:17;;;;;;;6.50;5.90;;;;;;;13.37;100.00;96223.34;4361181;32;20567;-75
2021/06/11 04:54:42;;;;;;;6.45;5.85;;;;;;;13.29;100.00;96230.84;4372299;32;20249;-74
2021/06/11 04:57:08;;;;;;;7.00;6.23;;;;;;;13.32;100.00;96230.63;4372768;32;20245;-74
2021/06/11 04:59:33;;;;;;;6.37;5.67;;;;;;;13.40;100.00;96225.75;4363713;32;20308;-75
2021/06/11 05:01:59;;;;;;;5.87;5.37;;;;;;;13.48;100.00;96231.25;4373655;32;20613;-74
2021/06/11 05:04:24;;;;;;;5.97;5.47;;;;;;;13.56;100.00;96228.16;4371074;32;20230;-74
2021/06/11 05:06:51;;;;;;;6.07;5.47;;;;;;;13.59;100.00;96225.34;4358296;33;20228;-74
2021/06/11 05:09:16;;;;;;;6.80;6.10;;;;;;;13.70;100.00;96224.62;4359793;33;20322;-74
2021/06/11 05:11:42;;;;;;;8.80;6.27;;;;;;;13.79;100.00;96223.97;4360099;32;20318;-73
2021/06/11 05:14:08;;;;;;;7.43;6.03;;;;;;;13.91;100.00;96225.75;4359768;32;20300;-74
2021/06/11 05:16:34;;;;;;;6.70;5.95;;;;;;;14.07;100.00;96220.31;4360600;32;20654;-74
2021/06/11 05:18:59;;;;;;;7.15;6.32;;;;;;;14.16;100.00;96227.47;4375191;32;20222;-75
2021/06/11 05:21:25;;;;;;;6.90;6.20;;;;;;;14.27;100.00;96224.94;4373961;32;20574;-76
2021/06/11 05:23:51;;;;;;;6.90;6.30;;;;;;;14.29;100.00;96225.69;4371979;32;20276;-75
2021/06/11 05:26:17;;;;;;;6.57;5.95;;;;;;;14.34;100.00;96230.56;4373490;32;20247;-75
2021/06/11 05:28:42;;;;;;;6.50;5.80;;;;;;;14.38;100.00;96232.00;4368090;32;20347;-75
2021/06/11 05:31:07;;;;;;;7.00;6.40;;;;;;;14.45;100.00;96230.66;4374953;32;20608;-75
2021/06/11 05:33:33;;;;;;;8.13;6.33;;;;;;;14.62;100.00;96237.31;4375177;32;20244;-75
2021/06/11 05:35:58;;;;;;;6.93;6.23;;;;;;;14.70;100.00;96231.53;4374725;32;20257;-75
2021/06/11 05:38:24;;;;;;;7.07;6.33;;;;;;;14.85;100.00;96242.66;4374101;32;20261;-75
2021/06/11 05:40:51;;;;;;;7.32;6.62;;;;;;;14.92;100.00;96242.09;4367825;32;20206;-75
2021/06/11 05:43:16;;;;;;;8.20;7.00;;;;;;;14.99;100.00;96239.88;4358517;33;20284;-75
2021/06/11 05:45:41;;;;;;;6.53;5.55;;;;;;;15.11;100.00;96243.34;4359650;32;20705;-75
2021/06/11 05:48:08;;;;;;;6.87;6.23;;;;;;;15.21;100.00;96242.56;4371526;32;20268;-76
2021/06/11 05:50:33;;;;;;;7.93;6.85;;;;;;;15.37;99.55;96247.47;4371265;32;20289;-75
2021/06/11 05:52:59;;;;;;;8.82;6.70;;;;;;;15.48;98.16;96246.69;4374214;32;20265;-75
2021/06/11 05:55:26;;;;;;;7.80;6.97;;;;;;;15.57;97.22;96248.59;4366644;32;20227;-76
2021/06/11 05:57:54;;;;;;;7.47;6.77;;;;;;;15.66;96.90;96241.91;4359592;32;20285;-75
2021/06/11 06:00:21;;;;;;;8.60;7.40;;;;;;;15.68;94.64;96238.22;4371494;32;20235;-74
2021/06/11 06:02:46;;;;;;;7.07;6.32;;;;;;;15.64;95.90;96241.13;4354165;32;20262;-75
2021/06/11 06:05:12;;;;;;;7.90;7.10;;;;;;;15.85;95.94;96234.31;4360074;32;20282;-75
2021/06/11 06:07:38;;;;;;;8.05;6.50;;;;;;;15.98;93.15;96242.03;4373752;32;20277;-75
2021/06/11 06:10:05;;;;;;;10.85;7.50;;;;;;;16.16;93.76;96231.94;4359786;32;20221;-73
2021/06/11 06:12:30;;;;;;;8.35;7.28;;;;;;;16.37;93.04;96238.13;4369943;32;20614;-73
2021/06/11 06:14:58;;;;;;;7.43;6.57;;;;;;;16.48;90.59;96239.88;4372788;32;20250;-74
2021/06/11 06:17:23;;;;;;;8.93;7.87;;;;;;;16.59;92.02;96239.88;4370508;32;20231;-74
2021/06/11 06:19:49;;;;;;;7.68;7.07;;;;;;;16.59;90.87;96242.50;4360364;32;20612;-74
2021/06/11 06:22:14;;;;;;;10.90;7.57;;;;;;;16.69;90.65;96242.59;4373804;32;20590;-75
2021/06/11 06:24:40;;;;;;;11.93;8.13;;;;;;;16.61;89.81;96239.75;4373750;32;20246;-75
2021/06/11 06:27:05;;;;;;;8.55;7.72;;;;;;;16.27;91.06;96245.00;4373087;32;20223;-76
2021/06/11 06:29:31;;;;;;;9.30;8.07;;;;;;;16.33;91.99;96235.87;4374089;32;20220;-76
2021/06/11 06:31:57;;;;;;;9.77;8.60;;;;;;;16.23;92.43;96237.53;4360147;32;20254;-76
2021/06/11 06:34:25;;;;;;;9.93;8.63;;;;;;;16.32;92.25;96236.84;4374064;32;20223;-76
2021/06/11 06:36:50;;;;;;;8.57;7.78;;;;;;;16.55;92.92;96237.63;4373611;32;20254;-72
2021/06/11 06:39:15;;;;;;;9.48;8.25;;;;;;;16.94;89.93;96241.47;4373853;32;20231;-75
2021/06/11 06:41:41;;;;;;;9.50;8.33;;;;;;;17.00;89.66;96238.38;4373472;32;20212;-75
2021/06/11 06:44:06;;;;;;;9.20;8.07;;;;;;;17.43;91.34;96245.34;4359814;32;20275;-76
2021/06/11 06:46:33;;;;;;;15.60;7.97;;;;;;;17.88;89.12;96239.88;4371666;32;20249;-75
2021/06/11 06:49:00;;;;;;;10.65;8.18;;;;;;;18.22;87.30;96234.38;4358638;33;20640;-75
2021/06/11 06:51:26;;;;;;;8.90;8.00;;;;;;;18.57;85.81;96242.59;4357702;32;20621;-75
2021/06/11 06:53:51;;;;;;;9.10;8.20;;;;;;;18.85;83.48;96234.97;4358407;33;20220;-75
2021/06/11 06:56:18;;;;;;;8.45;7.65;;;;;;;18.78;81.99;96244.34;4344318;33;20302;-70
2021/06/11 06:58:43;;;;;;;9.60;8.18;;;;;;;18.62;81.90;96235.19;4363016;32;20218;-75
2021/06/11 07:01:09;;;;;;;9.40;8.00;;;;;;;18.76;82.08;96239.25;4373774;32;20301;-76
2021/06/11 07:03:35;;;;;;;10.93;8.30;;;;;;;19.09;84.18;96234.56;4359732;32;20224;-75
2021/06/11 07:06:02;;;;;;;9.25;7.53;;;;;;;19.53;82.14;96234.97;4373706;32;20230;-76
2021/06/11 07:08:31;;;;;;;8.45;7.62;;;;;;;19.82;78.89;96234.97;4373869;32;20231;-76
2021/06/11 07:10:56;;;;;;;15.93;8.23;;;;;;;20.09;77.11;96236.00;4360540;32;20637;-76
2021/06/11 07:13:22;;;;;;;8.93;8.05;;;;;;;20.43;78.58;96231.88;4374272;32;20223;-76
2021/06/11 07:15:47;;;;;;;9.77;8.27;;;;;;;20.50;75.12;96240.00;4375653;32;20231;-76
2021/06/11 07:18:13;;;;;;;10.90;8.67;;;;;;;20.78;74.53;96233.75;4361895;32;20306;-75
2021/06/11 07:20:38;;;;;;;13.40;8.98;;;;;;;20.87;72.23;96237.31;4375388;32;20876;-75
2021/06/11 07:23:05;;;;;;;10.03;9.03;;;;;;;21.14;70.99;96235.63;4374432;32;20626;-75
2021/06/11 07:25:30;;;;;;;13.05;9.77;;;;;;;21.49;72.13;96245.34;4373299;32;20257;-75
2021/06/11 07:27:56;;;;;;;14.65;8.82;;;;;;;21.69;70.76;96238.91;4373744;32;20267;-77
2021/06/11 07:30:21;;;;;;;8.37;7.50;;;;;;;21.96;73.14;96231.84;4373707;32;20618;-76
2021/06/11 07:32:47;;;;;;;9.47;8.53;;;;;;;22.18;68.71;96238.44;4373141;32;20247;-76
2021/06/11 07:35:14;;;;;;;8.98;8.07;;;;;;;22.02;68.69;96233.84;4358896;32;20261;-75
2021/06/11 07:37:40;;;;;;;9.67;8.63;;;;;;;21.92;69.41;96235.78;4372812;32;20247;-75
2021/06/11 07:40:10;;;;;;;9.52;8.38;;;;;;;21.84;69.84;96236.56;4372907;32;20223;-75
2021/06/11 07:42:36;;;;;;;10.00;9.00;;;;;;;21.74;70.25;96233.19;4373066;32;20563;-75
2021/06/11 07:45:02;;;;;;;7.73;6.90;;;;;;;22.15;70.66;96238.75;4373044;32;20231;-76
2021/06/11 07:47:28;;;;;;;8.85;7.90;;;;;;;22.22;71.16;96235.31;4371986;32;20263;-76
2021/06/11 07:49:53;;;;;;;13.50;9.60;;;;;;;22.61;71.76;96234.00;4372952;32;20269;-76
2021/06/11 07:52:18;;;;;;;14.63;10.83;;;;;;;22.84;65.66;96242.13;4373375;32;20290;-75
2021/06/11 07:54:44;;;;;;;11.87;10.67;;;;;;;22.38;64.23;96237.19;4373092;32;20223;-74
2021/06/11 07:57:11;;;;;;;11.03;9.93;;;;;;;22.21;65.51;96236.31;4372347;32;20250;-75
2021/06/11 07:59:36;;;;;;;11.10;9.05;;;;;;;22.79;64.61;96245.28;4372447;32;20261;-75
2021/06/11 08:02:02;;;;;;;12.73;10.70;;;;;;;22.83;65.29;96238.69;4358971;32;20239;-75
2021/06/11 08:04:28;;;;;;;13.48;10.13;;;;;;;23.42;62.11;96246.56;4372339;32;20227;-74
2021/06/11 08:06:53;;;;;;;12.73;10.70;;;;;;;23.14;63.76;96248.72;4372307;32;20596;-75
2021/06/11 08:09:18;;;;;;;12.67;10.90;;;;;;;23.85;60.62;96242.81;4372619;32;20219;-75
2021/06/11 08:11:44;;;;;;;15.50;11.43;;;;;;;23.83;57.07;96241.31;4372716;32;20666;-75
2021/06/11 08:14:11;;;;;;;12.43;10.03;;;;;;;23.99;61.76;96230.72;4372827;32;20241;-76
2021/06/11 08:16:37;;;;;;;11.50;10.25;;;;;;;23.88;56.81;96239.84;4372279;32;20289;-77
2021/06/11 08:19:02;;;;;;;11.07;9.73;;;;;;;23.77;56.18;96239.31;4372969;32;20235;-77
2021/06/11 08:21:28;;;;;;;15.93;10.65;;;;;;;23.82;59.40;96235.19;4372706;32;20625;-76
2021/06/11 08:23:53;;;;;;;11.00;9.00;;;;;;;24.34;60.67;96237.41;4372869;32;20215;-76
2021/06/11 08:26:18;;;;;;;9.93;8.93;;;;;;;24.15;59.55;96240.44;4372405;32;20254;-77
2021/06/11 08:28:44;;;;;;;12.13;10.03;;;;;;;24.56;56.66;96241.16;4372575;32;20284;-76
2021/06/11 08:31:11;;;;;;;13.07;9.70;;;;;;;24.77;58.33;96235.28;4372296;32;20261;-76
2021/06/11 08:33:37;;;;;;;11.15;8.90;;;;;;;24.34;54.99;96237.41;4358889;32;20253;-76
2021/06/11 08:36:02;;;;;;;11.50;8.88;;;;;;;24.08;59.78;96235.00;4372111;32;20531;-75
2021/06/11 08:38:28;;;;;;;10.40;8.67;;;;;;;24.66;55.63;96229.53;4372325;32;20289;-76
2021/06/11 08:40:53;;;;;;;10.83;6.97;;;;;;;25.08;54.72;96227.31;4372817;32;20224;-76
2021/06/11 08:43:19;;;;;;;14.40;8.40;;;;;;;25.57;51.48;96231.47;4372042;32;20242;-76
2021/06/11 08:45:47;;;;;;;11.05;7.60;;;;;;;25.51;53.73;96229.53;4371856;32;20219;-76
2021/06/11 08:48:14;;;;;;;10.85;8.40;;;;;;;25.51;54.40;96232.16;4360395;32;20535;-76
2021/06/11 08:50:41;;;;;;;8.80;7.68;;;;;;;25.66;52.01;96233.06;4357269;33;20298;-76
2021/06/11 08:53:07;;;;;;;9.07;8.18;;;;;;;25.71;52.43;96229.88;4357415;33;20267;-76
2021/06/11 08:55:33;;;;;;;8.45;7.55;;;;;;;25.51;51.34;96237.47;4357117;33;20220;-76
2021/06/11 08:57:59;;;;;;;11.13;9.57;;;;;;;25.09;52.95;96238.75;4357363;32;20632;-76
2021/06/11 09:00:27;;;;;;;11.03;9.20;;;;;;;25.12;53.48;96230.47;4357246;33;20331;-73
2021/06/11 09:03:21;;;;;;;13.93;9.15;;;;;;;25.20;52.41;96232.25;4357347;33;20244;-76
2021/06/11 09:06:05;;;;;;;10.13;8.48;;;;;;;25.49;54.80;96234.19;4356863;33;20221;-76
2021/06/11 09:08:31;;;;;;;11.93;9.85;;;;;;;25.18;54.32;96236.88;4357304;32;20360;-76
2021/06/11 09:11:10;;;;;;;11.00;10.00;;;;;;;25.03;57.22;96234.13;4357116;33;20221;-76
2021/06/11 09:13:35;;;;;;;14.43;8.87;;;;;;;24.76;54.59;96233.63;4359142;32;20287;-76
2021/06/11 09:16:10;;;;;;;11.53;9.90;;;;;;;24.83;55.57;96229.28;4374773;32;20227;-76
2021/06/11 09:18:44;;;;;;;11.48;10.23;;;;;;;24.90;51.27;96231.25;4360977;32;20586;-76
2021/06/11 09:21:33;;;;;;;14.63;9.93;;;;;;;24.98;52.39;96237.31;4372454;32;20304;-76
2021/06/11 09:24:15;;;;;;;9.95;8.50;;;;;;;25.18;53.75;96242.19;4374651;32;20223;-76
2021/06/11 09:26:40;;;;;;;11.00;9.40;;;;;;;25.54;50.80;96240.59;4374127;32;20253;-77
2021/06/11 09:29:20;;;;;;;9.53;8.43;;;;;;;25.63;50.54;96241.38;4375483;32;20535;-77
2021/06/11 09:31:45;;;;;;;8.77;7.87;;;;;;;25.43;52.07;96243.66;4374994;32;20294;-77
2021/06/11 09:34:22;;;;;;;11.80;8.10;;;;;;;25.45;52.63;96233.72;4374817;32;20242;-76
2021/06/11 09:37:03;;;;;;;8.85;7.30;;;;;;;24.32;52.43;96241.22;4374259;32;20662;-75
2021/06/11 09:39:55;;;;;;;10.82;8.05;;;;;;;24.52;52.79;96231.09;4373259;32;20223;-74
2021/06/11 09:42:22;;;;;;;8.80;7.97;;;;;;;24.24;52.30;96230.66;4366738;32;20294;-74
2021/06/11 09:44:56;;;;;;;10.18;7.00;;;;;;;24.32;52.63;96234.09;4374391;32;20333;-76
2021/06/11 09:47:37;;;;;;;7.10;6.40;;;;;;;24.19;51.90;96240.94;4373364;32;20277;-76
2021/06/11 09:50:08;;;;;;;8.00;6.47;;;;;;;24.28;52.91;96216.91;4374499;32;20219;-75
2021/06/11 09:52:49;;;;;;;9.13;6.68;;;;;;;24.49;50.51;96229.59;4374681;32;20631;-76
2021/06/11 09:55:22;;;;;;;7.57;6.78;;;;;;;24.58;51.30;96227.72;4360464;32;20232;-75
2021/06/11 09:58:02;;;;;;;12.00;7.77;;;;;;;24.26;51.55;96228.66;4373956;32;20653;-75
2021/06/11 10:00:30;;;;;;;8.63;7.32;;;;;;;23.54;53.41;96232.03;4374114;32;20344;-75
2021/06/11 10:02:58;;;;;;;9.35;6.97;;;;;;;23.13;54.48;96234.66;4373833;32;20242;-74
2021/06/11 10:05:23;;;;;;;9.40;6.70;;;;;;;23.57;53.35;96238.81;4373407;32;20215;-74
2021/06/11 10:07:51;;;;;;;7.30;6.60;;;;;;;24.14;50.41;96236.16;4374028;32;20705;-74
2021/06/11 10:10:17;;;;;;;6.78;6.07;;;;;;;25.01;50.45;96228.19;4374266;32;20657;-74
2021/06/11 10:12:42;;;;;;;6.63;5.93;;;;;;;25.39;50.49;96231.75;4362315;32;20223;-74
2021/06/11 10:15:09;;;;;;;7.03;6.33;;;;;;;25.37;45.59;96227.66;4375064;32;20223;-74
2021/06/11 10:17:35;;;;;;;7.70;5.10;;;;;;;24.85;48.46;96226.47;4355527;33;20225;-73
2021/06/11 10:20:01;;;;;;;6.60;5.50;;;;;;;25.51;47.54;96224.22;4362105;32;20700;-74
2021/06/11 10:22:29;;;;;;;6.07;4.65;;;;;;;26.16;49.35;96228.94;4362447;32;20225;-74
2021/06/11 10:24:57;;;;;;;6.82;4.55;;;;;;;25.80;42.21;96226.97;4359450;32;20247;-74
2021/06/11 10:27:23;;;;;;;5.43;3.83;;;;;;;26.43;46.66;96218.69;4358608;32;20225;-74
2021/06/11 10:29:49;;;;;;;5.63;4.67;;;;;;;26.64;42.48;96223.28;4359271;32;20392;-74
2021/06/11 10:32:15;;;;;;;9.10;5.67;;;;;;;26.77;41.29;96220.78;4358812;33;20256;-74
2021/06/11 10:34:52;;;;;;;8.02;5.28;;;;;;;26.93;40.40;96217.09;4359249;32;20281;-74
2021/06/11 10:37:36;;;;;;;10.53;5.30;;;;;;;27.03;43.30;96217.59;4344824;33;20298;-74
2021/06/11 10:40:33;;;;;;;7.00;5.30;;;;;;;27.00;45.53;96218.00;4358680;33;20279;-74
2021/06/11 10:43:25;;;;;;;5.85;4.70;;;;;;;26.86;39.33;96217.03;4341236;32;20259;-74
2021/06/11 10:45:52;;;;;;;5.32;4.82;;;;;;;26.96;40.76;96216.75;4362380;32;20227;-77
2021/06/11 10:48:17;;;;;;;6.40;4.70;;;;;;;27.15;44.04;96213.50;4347466;33;20310;-75
2021/06/11 10:50:43;;;;;;;7.40;5.30;;;;;;;26.99;42.63;96213.69;4358246;32;20246;-74
2021/06/11 10:53:26;;;;;;;6.67;4.33;;;;;;;26.91;44.73;96216.47;4358319;33;20225;-75
2021/06/11 10:56:05;;;;;;;4.40;4.00;;;;;;;26.97;39.04;96213.87;4358236;33;20287;-75
2021/06/11 10:58:33;;;;;;;4.60;4.20;;;;;;;26.65;39.93;96212.47;4358425;33;20275;-74
2021/06/11 11:00:58;;;;;;;5.47;4.53;;;;;;;26.50;41.95;96204.53;4357927;33;20248;-74
2021/06/11 11:03:32;;;;;;;6.32;4.78;;;;;;;26.65;41.21;96204.50;4358435;32;20229;-75
2021/06/11 11:05:58;;;;;;;6.37;4.72;;;;;;;26.76;42.71;96206.69;4357609;32;20307;-74
2021/06/11 11:08:51;;;;;;;5.37;4.55;;;;;;;26.82;43.00;96204.31;4361904;32;20580;-75
2021/06/11 11:11:29;;;;;;;7.03;5.43;;;;;;;26.73;43.27;96201.72;4372800;32;20250;-75
2021/06/11 11:13:55;;;;;;;7.00;4.62;;;;;;;26.70;45.68;96193.34;4372522;32;20272;-75
2021/06/11 11:16:22;;;;;;;5.85;4.45;;;;;;;26.64;41.64;96189.59;4359050;32;20688;-75
2021/06/11 11:18:48;;;;;;;4.90;4.40;;;;;;;26.82;45.15;96202.47;4358222;33;20760;-76
2021/06/11 11:21:24;;;;;;;4.67;3.93;;;;;;;26.84;42.11;96194.28;4357958;33;20248;-75
2021/06/11 11:23:53;;;;;;;4.68;4.05;;;;;;;26.74;41.31;96190.13;4358140;33;20242;-77
2021/06/11 11:26:19;;;;;;;5.65;4.60;;;;;;;26.73;41.20;96191.09;4357697;33;20233;-77
2021/06/11 11:28:46;;;;;;;4.95;4.45;;;;;;;26.26;41.94;96187.03;4357979;32;20608;-75
2021/06/11 11:31:13;;;;;;;9.93;4.87;;;;;;;26.40;41.38;96182.72;4358351;33;20712;-77